EDLN/MGL METAR and TAF weather

Enter ICAO airport designator
Station Type Date Time Source
EDLN METAR 2020/01/18 04:20 UTC NOAA

EDLN 180420Z AUTO 22009KT 9999 // BKN059/// 04/02 Q1022


Station Type Date Time Source
EDLN Decoded METAR 2020/01/18 04:20 UTC NOAA

Monchengladbach, Germany (EDLN) 51-13-49N 006-30-16E
Jan 17, 2020 - 11:20 PM EST / 2020.01.18 0420 UTC
Wind: from the SW (220 degrees) at 10 MPH (9 KT):0
Visibility: greater than 7 mile(s):0
Sky conditions: mostly cloudy
Temperature: 39 F (4 C)
Dew Point: 35 F (2 C)
Relative Humidity: 86%
Pressure (altimeter): 30.18 in. Hg (1022 hPa)
ob: EDLN 180420Z AUTO 22009KT 9999 // BKN059/// 04/02 Q1022
cycle: 4

Station Type Date Time Source
EDLN TAF 2010/02/22 14:20 UTC NOAA

METAR EDLN 221420Z 18010G20KT 090V240 9999 SCT030 BKN045 11/06 Q0986
RMK ATIS R=

Example: see airport list